ARG1356 SASA-SABE
Flight info
| Callsign | ARG1356 |
|---|---|
| Flight time | 1h 38m |
| Altitude | 37000 |
| Route | VUL1 PONPI UT681 PUBER UL550 ROS UT672 MULTA UW24 SNT SNT9R |
| Aircraft | B738/M-SDE2E3FGHIRWXY/LB1 |
Departure
| Time | 2026-04-22 22:32 |
|---|---|
| Airport | Martín Miguel de Güemes International Airport (SASA) |
Arrival
| Time | 2026-04-23 00:10 |
|---|---|
| Airport | Aeroparque Jorge Newbery (SABE) |
| Time | Latitude | Longitude | Altitude | Speed | Heading |
|---|---|---|---|---|---|
| 2026-04-22 21:49 | -24.84465 | -65.47950 | 4016 ft | 0 kts | 23° |
| 2026-04-22 22:17 | -24.84477 | -65.47955 | 4017 ft | 4 kts | 10° |
| 2026-04-22 22:18 | -24.84499 | -65.47952 | 4017 ft | 4 kts | 312° |
| 2026-04-22 22:18 | -24.84510 | -65.47927 | 4017 ft | 4 kts | 280° |
| 2026-04-22 22:18 | -24.84514 | -65.47898 | 4017 ft | 4 kts | 285° |
| 2026-04-22 22:18 | -24.84517 | -65.47887 | 4017 ft | 0 kts | 293° |
| 2026-04-22 22:22 | -24.84517 | -65.47888 | 4016 ft | 0 kts | 293° |
| 2026-04-22 22:23 | -24.84509 | -65.47908 | 4016 ft | 7 kts | 293° |
| 2026-04-22 22:23 | -24.84493 | -65.47964 | 4016 ft | 8 kts | 258° |
| 2026-04-22 22:23 | -24.84517 | -65.48019 | 4016 ft | 8 kts | 253° |
| 2026-04-22 22:23 | -24.84533 | -65.48076 | 4016 ft | 8 kts | 253° |
| 2026-04-22 22:24 | -24.84549 | -65.48131 | 4016 ft | 7 kts | 251° |
| 2026-04-22 22:24 | -24.84566 | -65.48185 | 4016 ft | 8 kts | 251° |
| 2026-04-22 22:24 | -24.84587 | -65.48260 | 4016 ft | 12 kts | 252° |
| 2026-04-22 22:24 | -24.84634 | -65.48352 | 4016 ft | 16 kts | 224° |
| 2026-04-22 22:25 | -24.84723 | -65.48434 | 4016 ft | 17 kts | 206° |
| 2026-04-22 22:25 | -24.84834 | -65.48463 | 4018 ft | 16 kts | 191° |
| 2026-04-22 22:25 | -24.84941 | -65.48486 | 4017 ft | 15 kts | 191° |
| 2026-04-22 22:25 | -24.85049 | -65.48508 | 4016 ft | 16 kts | 191° |
| 2026-04-22 22:26 | -24.85156 | -65.48532 | 4016 ft | 16 kts | 191° |
| 2026-04-22 22:26 | -24.85261 | -65.48554 | 4016 ft | 15 kts | 191° |
| 2026-04-22 22:26 | -24.85391 | -65.48581 | 4016 ft | 23 kts | 191° |
| 2026-04-22 22:26 | -24.85567 | -65.48619 | 4018 ft | 27 kts | 191° |
| 2026-04-22 22:27 | -24.85735 | -65.48655 | 4017 ft | 24 kts | 191° |
| 2026-04-22 22:27 | -24.85892 | -65.48688 | 4018 ft | 23 kts | 191° |
| 2026-04-22 22:27 | -24.86045 | -65.48721 | 4018 ft | 22 kts | 192° |
| 2026-04-22 22:27 | -24.86193 | -65.48753 | 4020 ft | 21 kts | 189° |
| 2026-04-22 22:28 | -24.86337 | -65.48782 | 4016 ft | 21 kts | 191° |
| 2026-04-22 22:28 | -24.86476 | -65.48813 | 4014 ft | 20 kts | 190° |
| 2026-04-22 22:28 | -24.86611 | -65.48842 | 4015 ft | 19 kts | 191° |
| 2026-04-22 22:28 | -24.86742 | -65.48870 | 4000 ft | 19 kts | 191° |
| 2026-04-22 22:29 | -24.86866 | -65.48896 | 4014 ft | 14 kts | 191° |
| 2026-04-22 22:29 | -24.86960 | -65.48874 | 4009 ft | 14 kts | 162° |
| 2026-04-22 22:29 | -24.87050 | -65.48843 | 4023 ft | 13 kts | 162° |
| 2026-04-22 22:29 | -24.87135 | -65.48812 | 4017 ft | 13 kts | 162° |
| 2026-04-22 22:30 | -24.87221 | -65.48789 | 4017 ft | 14 kts | 179° |
| 2026-04-22 22:30 | -24.87304 | -65.48859 | 4017 ft | 19 kts | 260° |
| 2026-04-22 22:30 | -24.87250 | -65.48962 | 4018 ft | 16 kts | 337° |
| 2026-04-22 22:30 | -24.87145 | -65.48955 | 4018 ft | 15 kts | 12° |
| 2026-04-22 22:31 | -24.87034 | -65.48931 | 4017 ft | 28 kts | 11° |
| 2026-04-22 22:31 | -24.86566 | -65.48831 | 4003 ft | 108 kts | 11° |
| 2026-04-22 22:31 | -24.85598 | -65.48626 | 4019 ft | 174 kts | 11° |
| 2026-04-22 22:31 | -24.84282 | -65.48345 | 4477 ft | 200 kts | 11° |
| 2026-04-22 22:32 | -24.82911 | -65.48041 | 5522 ft | 198 kts | 12° |
| 2026-04-22 22:32 | -24.81547 | -65.47719 | 6375 ft | 208 kts | 12° |
| 2026-04-22 22:32 | -24.80049 | -65.47318 | 6586 ft | 233 kts | 21° |
| 2026-04-22 22:32 | -24.78632 | -65.46348 | 6977 ft | 245 kts | 40° |
| 2026-04-22 22:33 | -24.77420 | -65.45005 | 7604 ft | 250 kts | 54° |
| 2026-04-22 22:33 | -24.76477 | -65.43371 | 8261 ft | 260 kts | 54° |
| 2026-04-22 22:33 | -24.75182 | -65.41846 | 8603 ft | 282 kts | 47° |
| 2026-04-22 22:33 | -24.74230 | -65.39971 | 9309 ft | 287 kts | 78° |
| 2026-04-22 22:34 | -24.74342 | -65.37785 | 10082 ft | 292 kts | 107° |
| 2026-04-22 22:34 | -24.75039 | -65.35664 | 10829 ft | 297 kts | 108° |
| 2026-04-22 22:34 | -24.75908 | -65.33574 | 11478 ft | 306 kts | 127° |
| 2026-04-22 22:34 | -24.77561 | -65.32157 | 12192 ft | 310 kts | 158° |
| 2026-04-22 22:35 | -24.79689 | -65.31825 | 12896 ft | 313 kts | 186° |
| 2026-04-22 22:35 | -24.81875 | -65.32015 | 13568 ft | 318 kts | 182° |
| 2026-04-22 22:35 | -24.84112 | -65.32018 | 14228 ft | 323 kts | 181° |
| 2026-04-22 22:35 | -24.86398 | -65.32036 | 14637 ft | 338 kts | 182° |
| 2026-04-22 22:36 | -24.88833 | -65.32057 | 14769 ft | 360 kts | 181° |
| 2026-04-22 22:36 | -24.91401 | -65.32068 | 14939 ft | 378 kts | 181° |
| 2026-04-22 22:36 | -24.94078 | -65.32063 | 15263 ft | 390 kts | 181° |
| 2026-04-22 22:36 | -24.96815 | -65.32047 | 15807 ft | 394 kts | 181° |
| 2026-04-22 22:37 | -24.99565 | -65.32028 | 16407 ft | 396 kts | 181° |
| 2026-04-22 22:37 | -25.02336 | -65.32008 | 16941 ft | 400 kts | 181° |
| 2026-04-22 22:37 | -25.05131 | -65.31990 | 17489 ft | 403 kts | 182° |
| 2026-04-22 22:37 | -25.07942 | -65.31972 | 18001 ft | 407 kts | 182° |
| 2026-04-22 22:38 | -25.10751 | -65.31955 | 18508 ft | 410 kts | 182° |
| 2026-04-22 22:38 | -25.13617 | -65.31937 | 18998 ft | 414 kts | 182° |
| 2026-04-22 22:38 | -25.16510 | -65.31916 | 19489 ft | 417 kts | 182° |
| 2026-04-22 22:38 | -25.19425 | -65.31897 | 19956 ft | 420 kts | 182° |
| 2026-04-22 22:39 | -25.22361 | -65.31879 | 20430 ft | 423 kts | 182° |
| 2026-04-22 22:39 | -25.25315 | -65.31860 | 20902 ft | 426 kts | 182° |
| 2026-04-22 22:39 | -25.28289 | -65.31841 | 21364 ft | 428 kts | 183° |
| 2026-04-22 22:39 | -25.31274 | -65.31821 | 21783 ft | 431 kts | 183° |
| 2026-04-22 22:40 | -25.34282 | -65.31802 | 22181 ft | 434 kts | 183° |
| 2026-04-22 22:40 | -25.37312 | -65.31782 | 22568 ft | 437 kts | 183° |
| 2026-04-22 22:40 | -25.40365 | -65.31762 | 22941 ft | 440 kts | 183° |
| 2026-04-22 22:40 | -25.43434 | -65.31745 | 23313 ft | 442 kts | 183° |
| 2026-04-22 22:41 | -25.46519 | -65.31723 | 23732 ft | 444 kts | 183° |
| 2026-04-22 22:41 | -25.49613 | -65.31702 | 24134 ft | 447 kts | 184° |
| 2026-04-22 22:41 | -25.52736 | -65.31680 | 24494 ft | 450 kts | 184° |
| 2026-04-22 22:41 | -25.55885 | -65.31660 | 24798 ft | 453 kts | 184° |
| 2026-04-22 22:42 | -25.59046 | -65.31639 | 25099 ft | 457 kts | 184° |
| 2026-04-22 22:42 | -25.62234 | -65.31618 | 25420 ft | 459 kts | 184° |
| 2026-04-22 22:42 | -25.65442 | -65.31597 | 25736 ft | 462 kts | 184° |
| 2026-04-22 22:42 | -25.68663 | -65.31575 | 26068 ft | 465 kts | 184° |
| 2026-04-22 22:43 | -25.71909 | -65.31554 | 26389 ft | 467 kts | 184° |
| 2026-04-22 22:43 | -25.75162 | -65.31499 | 26682 ft | 472 kts | 181° |
| 2026-04-22 22:43 | -25.78424 | -65.30759 | 26914 ft | 485 kts | 165° |
| 2026-04-22 22:43 | -25.81615 | -65.29513 | 27262 ft | 486 kts | 164° |
| 2026-04-22 22:44 | -25.84769 | -65.28273 | 27491 ft | 489 kts | 164° |
| 2026-04-22 22:44 | -25.87991 | -65.27027 | 27692 ft | 491 kts | 165° |
| 2026-04-22 22:44 | -25.91231 | -65.25798 | 27904 ft | 494 kts | 165° |
| 2026-04-22 22:44 | -25.94497 | -65.24578 | 28132 ft | 496 kts | 166° |
| 2026-04-22 22:45 | -25.97788 | -65.23361 | 28368 ft | 499 kts | 166° |
| 2026-04-22 22:45 | -26.01087 | -65.22147 | 28616 ft | 501 kts | 166° |
| 2026-04-22 22:45 | -26.04401 | -65.20927 | 28865 ft | 503 kts | 166° |
| 2026-04-22 22:45 | -26.07733 | -65.19701 | 29035 ft | 507 kts | 166° |
| 2026-04-22 22:46 | -26.11091 | -65.18465 | 29229 ft | 510 kts | 166° |
| 2026-04-22 22:46 | -26.14469 | -65.17218 | 29493 ft | 511 kts | 167° |
| 2026-04-22 22:46 | -26.17845 | -65.15970 | 29743 ft | 513 kts | 167° |
| 2026-04-22 22:46 | -26.21238 | -65.14713 | 29948 ft | 515 kts | 167° |
| 2026-04-22 22:47 | -26.24657 | -65.13446 | 30150 ft | 517 kts | 167° |
| 2026-04-22 22:47 | -26.28077 | -65.12178 | 30380 ft | 519 kts | 167° |
| 2026-04-22 22:47 | -26.31496 | -65.10910 | 30687 ft | 518 kts | 167° |
| 2026-04-22 22:47 | -26.34912 | -65.09641 | 31046 ft | 517 kts | 167° |
| 2026-04-22 22:48 | -26.38319 | -65.08374 | 31373 ft | 516 kts | 167° |
| 2026-04-22 22:48 | -26.41732 | -65.07106 | 31583 ft | 518 kts | 167° |
| 2026-04-22 22:48 | -26.45151 | -65.05836 | 31860 ft | 518 kts | 167° |
| 2026-04-22 22:48 | -26.48571 | -65.04564 | 32172 ft | 517 kts | 167° |
| 2026-04-22 22:49 | -26.51985 | -65.03292 | 32459 ft | 517 kts | 167° |
| 2026-04-22 22:49 | -26.55392 | -65.02023 | 32742 ft | 517 kts | 167° |
| 2026-04-22 22:49 | -26.58814 | -65.00748 | 32934 ft | 519 kts | 167° |
| 2026-04-22 22:49 | -26.62198 | -64.99488 | 33138 ft | 520 kts | 167° |
| 2026-04-22 22:50 | -26.65635 | -64.98207 | 33391 ft | 520 kts | 167° |
| 2026-04-22 22:50 | -26.69060 | -64.96927 | 33648 ft | 520 kts | 167° |
| 2026-04-22 22:50 | -26.72489 | -64.95644 | 33898 ft | 520 kts | 168° |
| 2026-04-22 22:50 | -26.75933 | -64.94357 | 34100 ft | 521 kts | 167° |
| 2026-04-22 22:51 | -26.79371 | -64.93070 | 34350 ft | 521 kts | 168° |
| 2026-04-22 22:51 | -26.82818 | -64.91779 | 34641 ft | 520 kts | 168° |
| 2026-04-22 22:51 | -26.86234 | -64.90499 | 34934 ft | 518 kts | 168° |
| 2026-04-22 22:51 | -26.89655 | -64.89217 | 35211 ft | 517 kts | 168° |
| 2026-04-22 22:52 | -26.93060 | -64.87940 | 35580 ft | 513 kts | 168° |
| 2026-04-22 22:52 | -26.96439 | -64.86674 | 35872 ft | 512 kts | 168° |
| 2026-04-22 22:52 | -26.99821 | -64.85405 | 36064 ft | 513 kts | 168° |
| 2026-04-22 22:52 | -27.03211 | -64.84133 | 36213 ft | 515 kts | 168° |
| 2026-04-22 22:53 | -27.06613 | -64.82857 | 36320 ft | 517 kts | 168° |
| 2026-04-22 22:53 | -27.10046 | -64.81568 | 36421 ft | 520 kts | 169° |
| 2026-04-22 22:53 | -27.13478 | -64.80277 | 36617 ft | 520 kts | 169° |
| 2026-04-22 22:53 | -27.16898 | -64.78987 | 36891 ft | 517 kts | 169° |
| 2026-04-22 22:54 | -27.20296 | -64.77703 | 37161 ft | 515 kts | 169° |
| 2026-04-22 22:54 | -27.27107 | -64.75134 | 37129 ft | 515 kts | 169° |
| 2026-04-22 22:55 | -27.33865 | -64.72579 | 37117 ft | 508 kts | 169° |
| 2026-04-22 22:55 | -27.43864 | -64.68799 | 37129 ft | 507 kts | 169° |
| 2026-04-22 22:56 | -27.50553 | -64.66267 | 37131 ft | 507 kts | 169° |
| 2026-04-22 22:56 | -27.57047 | -64.62880 | 37145 ft | 521 kts | 155° |
| 2026-04-22 22:57 | -27.63241 | -64.58608 | 37133 ft | 522 kts | 154° |
| 2026-04-22 22:57 | -27.69399 | -64.54367 | 37125 ft | 522 kts | 155° |
| 2026-04-22 22:58 | -27.75634 | -64.50147 | 37134 ft | 522 kts | 155° |
| 2026-04-22 22:58 | -27.81881 | -64.45946 | 37129 ft | 523 kts | 156° |
| 2026-04-22 22:59 | -27.88146 | -64.41726 | 37129 ft | 523 kts | 156° |
| 2026-04-22 22:59 | -27.94410 | -64.37497 | 37125 ft | 523 kts | 156° |
| 2026-04-22 23:00 | -28.00660 | -64.33269 | 37132 ft | 523 kts | 156° |
| 2026-04-22 23:00 | -28.06904 | -64.29033 | 37125 ft | 523 kts | 156° |
| 2026-04-22 23:01 | -28.13114 | -64.24820 | 37131 ft | 523 kts | 156° |
| 2026-04-22 23:01 | -28.19354 | -64.20582 | 37129 ft | 523 kts | 156° |
| 2026-04-22 23:02 | -28.25584 | -64.16342 | 37130 ft | 522 kts | 156° |
| 2026-04-22 23:02 | -28.31816 | -64.12101 | 37135 ft | 522 kts | 156° |
| 2026-04-22 23:03 | -28.38046 | -64.07854 | 37128 ft | 522 kts | 156° |
| 2026-04-22 23:03 | -28.44287 | -64.03592 | 37129 ft | 522 kts | 156° |
| 2026-04-22 23:04 | -28.50508 | -63.99339 | 37130 ft | 522 kts | 156° |
| 2026-04-22 23:04 | -28.56739 | -63.95072 | 37132 ft | 522 kts | 156° |
| 2026-04-22 23:05 | -28.62963 | -63.90805 | 37117 ft | 522 kts | 156° |
| 2026-04-22 23:05 | -28.69144 | -63.86558 | 37135 ft | 522 kts | 156° |
| 2026-04-22 23:06 | -28.75374 | -63.82276 | 37138 ft | 522 kts | 156° |
| 2026-04-22 23:06 | -28.81596 | -63.77990 | 37148 ft | 522 kts | 156° |
| 2026-04-22 23:07 | -28.86763 | -63.74404 | 37161 ft | 523 kts | 156° |
| 2026-04-22 23:07 | -28.93996 | -63.69364 | 37167 ft | 523 kts | 156° |
| 2026-04-22 23:08 | -29.00220 | -63.65023 | 37179 ft | 524 kts | 156° |
| 2026-04-22 23:08 | -29.05438 | -63.61382 | 37174 ft | 525 kts | 156° |
| 2026-04-22 23:09 | -29.11677 | -63.57022 | 37186 ft | 525 kts | 156° |
| 2026-04-22 23:09 | -29.17919 | -63.52654 | 37181 ft | 526 kts | 156° |
| 2026-04-22 23:10 | -29.24169 | -63.48274 | 37181 ft | 527 kts | 156° |
| 2026-04-22 23:10 | -29.30425 | -63.43881 | 37178 ft | 527 kts | 156° |
| 2026-04-22 23:11 | -29.36640 | -63.39514 | 37193 ft | 527 kts | 156° |
| 2026-04-22 23:11 | -29.42905 | -63.35100 | 37196 ft | 528 kts | 156° |
| 2026-04-22 23:12 | -29.49154 | -63.30690 | 37187 ft | 528 kts | 156° |
| 2026-04-22 23:12 | -29.55407 | -63.26256 | 37193 ft | 528 kts | 156° |
| 2026-04-22 23:13 | -29.61654 | -63.21815 | 37196 ft | 528 kts | 156° |
| 2026-04-22 23:13 | -29.67905 | -63.17366 | 37202 ft | 528 kts | 156° |
| 2026-04-22 23:14 | -29.74140 | -63.12922 | 37201 ft | 528 kts | 156° |
| 2026-04-22 23:14 | -29.80386 | -63.08467 | 37208 ft | 527 kts | 156° |
| 2026-04-22 23:15 | -29.86581 | -63.04041 | 37200 ft | 527 kts | 156° |
| 2026-04-22 23:15 | -29.92812 | -62.99582 | 37204 ft | 527 kts | 156° |
| 2026-04-22 23:16 | -29.99031 | -62.95126 | 37210 ft | 526 kts | 156° |
| 2026-04-22 23:16 | -30.05252 | -62.90659 | 37203 ft | 526 kts | 157° |
| 2026-04-22 23:17 | -30.11470 | -62.86189 | 37213 ft | 526 kts | 157° |
| 2026-04-22 23:17 | -30.17680 | -62.81718 | 37212 ft | 526 kts | 157° |
| 2026-04-22 23:18 | -30.23895 | -62.77237 | 37220 ft | 526 kts | 157° |
| 2026-04-22 23:18 | -30.30072 | -62.72775 | 37213 ft | 527 kts | 157° |
| 2026-04-22 23:19 | -30.36290 | -62.68279 | 37211 ft | 526 kts | 157° |
| 2026-04-22 23:19 | -30.42502 | -62.63783 | 37213 ft | 527 kts | 157° |
| 2026-04-22 23:20 | -30.48717 | -62.59280 | 37213 ft | 527 kts | 157° |
| 2026-04-22 23:20 | -30.54936 | -62.54764 | 37213 ft | 527 kts | 157° |
| 2026-04-22 23:21 | -30.61155 | -62.50243 | 37210 ft | 527 kts | 157° |
| 2026-04-22 23:21 | -30.67376 | -62.45711 | 37214 ft | 527 kts | 157° |
| 2026-04-22 23:22 | -30.73590 | -62.41178 | 37209 ft | 527 kts | 157° |
| 2026-04-22 23:22 | -30.79804 | -62.36644 | 37213 ft | 527 kts | 157° |
| 2026-04-22 23:23 | -30.85992 | -62.32148 | 37210 ft | 527 kts | 158° |
| 2026-04-22 23:23 | -30.92225 | -62.27625 | 37217 ft | 528 kts | 157° |
| 2026-04-22 23:24 | -30.98450 | -62.23092 | 37203 ft | 528 kts | 158° |
| 2026-04-22 23:24 | -31.04686 | -62.18543 | 37205 ft | 528 kts | 158° |
| 2026-04-22 23:25 | -31.10927 | -62.13988 | 37201 ft | 528 kts | 158° |
| 2026-04-22 23:25 | -31.17162 | -62.09432 | 37206 ft | 528 kts | 158° |
| 2026-04-22 23:26 | -31.23353 | -62.04885 | 37205 ft | 528 kts | 157° |
| 2026-04-22 23:26 | -31.29560 | -62.00274 | 37203 ft | 529 kts | 157° |
| 2026-04-22 23:27 | -31.35770 | -61.95645 | 37202 ft | 529 kts | 158° |
| 2026-04-22 23:27 | -31.41971 | -61.91025 | 37195 ft | 529 kts | 158° |
| 2026-04-22 23:28 | -31.48184 | -61.86392 | 37194 ft | 529 kts | 158° |
| 2026-04-22 23:28 | -31.54386 | -61.81758 | 37193 ft | 529 kts | 158° |
| 2026-04-22 23:29 | -31.60588 | -61.77115 | 37196 ft | 528 kts | 158° |
| 2026-04-22 23:29 | -31.66789 | -61.72469 | 37192 ft | 528 kts | 158° |
| 2026-04-22 23:30 | -31.72983 | -61.67819 | 37194 ft | 529 kts | 158° |
| 2026-04-22 23:30 | -31.79182 | -61.63158 | 37197 ft | 529 kts | 158° |
| 2026-04-22 23:31 | -31.85376 | -61.58491 | 37193 ft | 529 kts | 158° |
| 2026-04-22 23:31 | -31.91531 | -61.53849 | 37193 ft | 529 kts | 158° |
| 2026-04-22 23:32 | -31.97729 | -61.49169 | 37194 ft | 529 kts | 158° |
| 2026-04-22 23:32 | -32.03920 | -61.44485 | 37186 ft | 529 kts | 158° |
| 2026-04-22 23:33 | -32.10106 | -61.39795 | 37184 ft | 529 kts | 158° |
| 2026-04-22 23:33 | -32.16296 | -61.35094 | 37178 ft | 529 kts | 158° |
| 2026-04-22 23:34 | -32.22480 | -61.30392 | 37188 ft | 529 kts | 158° |
| 2026-04-22 23:34 | -32.28665 | -61.25681 | 37180 ft | 529 kts | 158° |
| 2026-04-22 23:35 | -32.34842 | -61.20968 | 37183 ft | 528 kts | 158° |
| 2026-04-22 23:35 | -32.41021 | -61.16246 | 37173 ft | 528 kts | 158° |
| 2026-04-22 23:36 | -32.47189 | -61.11524 | 37187 ft | 527 kts | 158° |
| 2026-04-22 23:36 | -32.53306 | -61.06832 | 37195 ft | 527 kts | 158° |
| 2026-04-22 23:37 | -32.59463 | -61.02104 | 37181 ft | 527 kts | 158° |
| 2026-04-22 23:37 | -32.65615 | -60.97371 | 37193 ft | 527 kts | 158° |
| 2026-04-22 23:38 | -32.71758 | -60.92638 | 37176 ft | 527 kts | 158° |
| 2026-04-22 23:38 | -32.77901 | -60.87896 | 37183 ft | 526 kts | 158° |
| 2026-04-22 23:39 | -32.84046 | -60.83143 | 37178 ft | 526 kts | 158° |
| 2026-04-22 23:39 | -32.90174 | -60.78398 | 37188 ft | 525 kts | 158° |
| 2026-04-22 23:40 | -32.96388 | -60.73918 | 37185 ft | 520 kts | 161° |
| 2026-04-22 23:40 | -33.02638 | -60.69697 | 37190 ft | 519 kts | 162° |
| 2026-04-22 23:41 | -33.08960 | -60.65405 | 37193 ft | 520 kts | 162° |
| 2026-04-22 23:41 | -33.15178 | -60.61115 | 37185 ft | 520 kts | 161° |
| 2026-04-22 23:42 | -33.21443 | -60.56766 | 37176 ft | 520 kts | 161° |
| 2026-04-22 23:42 | -33.27701 | -60.52415 | 37188 ft | 520 kts | 161° |
| 2026-04-22 23:43 | -33.33961 | -60.48057 | 37195 ft | 520 kts | 161° |
| 2026-04-22 23:43 | -33.40223 | -60.43693 | 37179 ft | 521 kts | 162° |
| 2026-04-22 23:44 | -33.46480 | -60.39326 | 37172 ft | 521 kts | 161° |
| 2026-04-22 23:44 | -33.49623 | -60.37133 | 36904 ft | 524 kts | 161° |
| 2026-04-22 23:44 | -33.52770 | -60.34930 | 36659 ft | 521 kts | 161° |
| 2026-04-22 23:45 | -33.55887 | -60.32741 | 36404 ft | 517 kts | 161° |
| 2026-04-22 23:45 | -33.58937 | -60.30597 | 35987 ft | 515 kts | 161° |
| 2026-04-22 23:45 | -33.62046 | -60.28420 | 35347 ft | 516 kts | 161° |
| 2026-04-22 23:45 | -33.65152 | -60.26246 | 34752 ft | 517 kts | 161° |
| 2026-04-22 23:46 | -33.68253 | -60.24068 | 34106 ft | 518 kts | 161° |
| 2026-04-22 23:46 | -33.71372 | -60.21875 | 33445 ft | 520 kts | 161° |
| 2026-04-22 23:46 | -33.74499 | -60.19675 | 32755 ft | 522 kts | 160° |
| 2026-04-22 23:46 | -33.77638 | -60.17465 | 32037 ft | 523 kts | 159° |
| 2026-04-22 23:47 | -33.80768 | -60.15188 | 31290 ft | 529 kts | 154° |
| 2026-04-22 23:47 | -33.83692 | -60.12410 | 30500 ft | 542 kts | 144° |
| 2026-04-22 23:47 | -33.86304 | -60.09106 | 29793 ft | 548 kts | 133° |
| 2026-04-22 23:47 | -33.88492 | -60.05351 | 29255 ft | 546 kts | 126° |
| 2026-04-22 23:48 | -33.90523 | -60.01571 | 28674 ft | 541 kts | 126° |
| 2026-04-22 23:48 | -33.92557 | -59.97791 | 28084 ft | 531 kts | 126° |
| 2026-04-22 23:48 | -33.94570 | -59.94087 | 27520 ft | 523 kts | 126° |
| 2026-04-22 23:48 | -33.96567 | -59.90457 | 26967 ft | 518 kts | 126° |
| 2026-04-22 23:49 | -33.98558 | -59.86867 | 26396 ft | 513 kts | 126° |
| 2026-04-22 23:49 | -34.00541 | -59.83309 | 25852 ft | 508 kts | 126° |
| 2026-04-22 23:49 | -34.02505 | -59.79790 | 25296 ft | 503 kts | 126° |
| 2026-04-22 23:49 | -34.04447 | -59.76304 | 24745 ft | 498 kts | 126° |
| 2026-04-22 23:50 | -34.06345 | -59.72889 | 24200 ft | 493 kts | 126° |
| 2026-04-22 23:50 | -34.08245 | -59.69463 | 23649 ft | 488 kts | 125° |
| 2026-04-22 23:50 | -34.10125 | -59.66067 | 23099 ft | 484 kts | 125° |
| 2026-04-22 23:50 | -34.11986 | -59.62701 | 22550 ft | 479 kts | 125° |
| 2026-04-22 23:51 | -34.13807 | -59.59405 | 21997 ft | 466 kts | 125° |
| 2026-04-22 23:51 | -34.15598 | -59.56163 | 21477 ft | 462 kts | 125° |
| 2026-04-22 23:51 | -34.17375 | -59.52943 | 20957 ft | 458 kts | 125° |
| 2026-04-22 23:51 | -34.19136 | -59.49748 | 20423 ft | 455 kts | 125° |
| 2026-04-22 23:52 | -34.20883 | -59.46576 | 19899 ft | 452 kts | 125° |
| 2026-04-22 23:52 | -34.22615 | -59.43424 | 19370 ft | 448 kts | 125° |
| 2026-04-22 23:52 | -34.24288 | -59.40304 | 18851 ft | 446 kts | 124° |
| 2026-04-22 23:52 | -34.25939 | -59.37168 | 18315 ft | 437 kts | 124° |
| 2026-04-22 23:53 | -34.27549 | -59.34088 | 17798 ft | 429 kts | 124° |
| 2026-04-22 23:53 | -34.29136 | -59.31052 | 17294 ft | 427 kts | 124° |
| 2026-04-22 23:53 | -34.30719 | -59.28028 | 16790 ft | 424 kts | 124° |
| 2026-04-22 23:53 | -34.32292 | -59.25025 | 16280 ft | 421 kts | 124° |
| 2026-04-22 23:54 | -34.33855 | -59.22044 | 15772 ft | 418 kts | 124° |
| 2026-04-22 23:54 | -34.35407 | -59.19083 | 15257 ft | 415 kts | 124° |
| 2026-04-22 23:54 | -34.36949 | -59.16141 | 14745 ft | 412 kts | 124° |
| 2026-04-22 23:54 | -34.38481 | -59.13217 | 14234 ft | 409 kts | 124° |
| 2026-04-22 23:55 | -34.39997 | -59.10324 | 13719 ft | 403 kts | 124° |
| 2026-04-22 23:55 | -34.40982 | -59.08440 | 13389 ft | 398 kts | 124° |
| 2026-04-22 23:55 | -34.42453 | -59.05624 | 12894 ft | 395 kts | 124° |
| 2026-04-22 23:55 | -34.43919 | -59.02815 | 12382 ft | 392 kts | 124° |
| 2026-04-22 23:56 | -34.45371 | -59.00035 | 11898 ft | 389 kts | 124° |
| 2026-04-22 23:56 | -34.46813 | -58.97272 | 11396 ft | 385 kts | 124° |
| 2026-04-22 23:56 | -34.48218 | -58.94572 | 10986 ft | 369 kts | 124° |
| 2026-04-22 23:56 | -34.49542 | -58.92021 | 10835 ft | 347 kts | 125° |
| 2026-04-22 23:57 | -34.50792 | -58.89612 | 10676 ft | 329 kts | 125° |
| 2026-04-22 23:57 | -34.51981 | -58.87323 | 10541 ft | 313 kts | 126° |
| 2026-04-22 23:57 | -34.53113 | -58.85148 | 10424 ft | 305 kts | 126° |
| 2026-04-22 23:57 | -34.54226 | -58.83006 | 10292 ft | 296 kts | 126° |
| 2026-04-22 23:58 | -34.55307 | -58.80922 | 10180 ft | 288 kts | 126° |
| 2026-04-22 23:58 | -34.56348 | -58.78865 | 9950 ft | 286 kts | 121° |
| 2026-04-22 23:58 | -34.57099 | -58.76618 | 9681 ft | 287 kts | 112° |
| 2026-04-22 23:58 | -34.57703 | -58.74307 | 9397 ft | 287 kts | 111° |
| 2026-04-22 23:59 | -34.58292 | -58.72000 | 9116 ft | 285 kts | 111° |
| 2026-04-22 23:59 | -34.58886 | -58.69718 | 8834 ft | 283 kts | 112° |
| 2026-04-22 23:59 | -34.59496 | -58.67450 | 8545 ft | 281 kts | 113° |
| 2026-04-22 23:59 | -34.60109 | -58.65208 | 8269 ft | 280 kts | 113° |
| 2026-04-23 00:00 | -34.61340 | -58.60749 | 7712 ft | 277 kts | 113° |
| 2026-04-23 00:00 | -34.61935 | -58.58540 | 7423 ft | 276 kts | 112° |
| 2026-04-23 00:00 | -34.62525 | -58.56325 | 7142 ft | 274 kts | 112° |
| 2026-04-23 00:01 | -34.63108 | -58.54131 | 6870 ft | 273 kts | 112° |
| 2026-04-23 00:01 | -34.63681 | -58.51970 | 6580 ft | 272 kts | 112° |
| 2026-04-23 00:01 | -34.64260 | -58.49792 | 6305 ft | 271 kts | 112° |
| 2026-04-23 00:01 | -34.64837 | -58.47620 | 5997 ft | 270 kts | 112° |
| 2026-04-23 00:02 | -34.65416 | -58.45445 | 5687 ft | 270 kts | 112° |
| 2026-04-23 00:02 | -34.65989 | -58.43285 | 5399 ft | 269 kts | 112° |
| 2026-04-23 00:02 | -34.66560 | -58.41127 | 5123 ft | 267 kts | 112° |
| 2026-04-23 00:02 | -34.67129 | -58.38984 | 4842 ft | 262 kts | 112° |
| 2026-04-23 00:03 | -34.67663 | -58.36956 | 4732 ft | 243 kts | 112° |
| 2026-04-23 00:03 | -34.68169 | -58.35044 | 4592 ft | 232 kts | 112° |
| 2026-04-23 00:03 | -34.68649 | -58.33229 | 4493 ft | 219 kts | 112° |
| 2026-04-23 00:03 | -34.69100 | -58.31530 | 4419 ft | 204 kts | 113° |
| 2026-04-23 00:04 | -34.69527 | -58.29913 | 4383 ft | 201 kts | 113° |
| 2026-04-23 00:04 | -34.69956 | -58.28293 | 4249 ft | 203 kts | 112° |
| 2026-04-23 00:04 | -34.70327 | -58.26605 | 3922 ft | 208 kts | 98° |
| 2026-04-23 00:04 | -34.69940 | -58.24950 | 3675 ft | 205 kts | 52° |
| 2026-04-23 00:05 | -34.68797 | -58.24023 | 3503 ft | 198 kts | 13° |
| 2026-04-23 00:05 | -34.67477 | -58.23802 | 3307 ft | 187 kts | 360° |
| 2026-04-23 00:05 | -34.66214 | -58.23892 | 3082 ft | 176 kts | 336° |
| 2026-04-23 00:05 | -34.65350 | -58.24745 | 2969 ft | 158 kts | 298° |
| 2026-04-23 00:06 | -34.64717 | -58.25902 | 2774 ft | 163 kts | 301° |
| 2026-04-23 00:06 | -34.64087 | -58.26994 | 2586 ft | 155 kts | 301° |
| 2026-04-23 00:06 | -34.63492 | -58.28038 | 2422 ft | 150 kts | 301° |
| 2026-04-23 00:06 | -34.62897 | -58.29090 | 2253 ft | 152 kts | 302° |
| 2026-04-23 00:07 | -34.62305 | -58.30145 | 2103 ft | 151 kts | 302° |
| 2026-04-23 00:07 | -34.61710 | -58.31208 | 1894 ft | 152 kts | 302° |
| 2026-04-23 00:07 | -34.61118 | -58.32269 | 1701 ft | 151 kts | 302° |
| 2026-04-23 00:07 | -34.60529 | -58.33323 | 1504 ft | 150 kts | 303° |
| 2026-04-23 00:08 | -34.59943 | -58.34373 | 1308 ft | 151 kts | 304° |
| 2026-04-23 00:08 | -34.59351 | -58.35433 | 1100 ft | 152 kts | 304° |
| 2026-04-23 00:08 | -34.58751 | -58.36501 | 914 ft | 155 kts | 304° |
| 2026-04-23 00:08 | -34.58150 | -58.37578 | 704 ft | 152 kts | 304° |
| 2026-04-23 00:09 | -34.57552 | -58.38640 | 463 ft | 153 kts | 303° |
| 2026-04-23 00:09 | -34.56966 | -58.39710 | 243 ft | 151 kts | 304° |
| 2026-04-23 00:09 | -34.56383 | -58.40751 | 44 ft | 147 kts | 304° |
| 2026-04-23 00:09 | -34.55925 | -58.41572 | 23 ft | 66 kts | 304° |
| 2026-04-23 00:10 | -34.55788 | -58.41819 | 24 ft | 28 kts | 304° |
| 2026-04-23 00:10 | -34.55711 | -58.41901 | 27 ft | 10 kts | 19° |
| 2026-04-23 00:10 | -34.55685 | -58.41881 | 25 ft | 1 kts | 34° |
| 2026-04-23 00:10 | -34.55678 | -58.41872 | 25 ft | 1 kts | 61° |
| 2026-04-23 00:11 | -34.55680 | -58.41859 | 25 ft | 2 kts | 104° |
| 2026-04-23 00:11 | -34.55688 | -58.41840 | 28 ft | 5 kts | 119° |
| 2026-04-23 00:11 | -34.55713 | -58.41793 | 26 ft | 8 kts | 122° |
| 2026-04-23 00:11 | -34.55739 | -58.41741 | 27 ft | 6 kts | 119° |
| 2026-04-23 00:12 | -34.55761 | -58.41694 | 29 ft | 6 kts | 117° |
| 2026-04-23 00:12 | -34.55780 | -58.41647 | 27 ft | 6 kts | 115° |
| 2026-04-23 00:12 | -34.55798 | -58.41600 | 29 ft | 6 kts | 116° |
| 2026-04-23 00:12 | -34.55817 | -58.41555 | 26 ft | 6 kts | 117° |
| 2026-04-23 00:13 | -34.55836 | -58.41511 | 26 ft | 6 kts | 116° |
| 2026-04-23 00:13 | -34.55854 | -58.41467 | 30 ft | 6 kts | 116° |
| 2026-04-23 00:13 | -34.55872 | -58.41424 | 26 ft | 6 kts | 116° |
| 2026-04-23 00:13 | -34.55890 | -58.41382 | 26 ft | 6 kts | 117° |
| 2026-04-23 00:14 | -34.55906 | -58.41340 | 29 ft | 5 kts | 109° |
| 2026-04-23 00:14 | -34.55896 | -58.41298 | 26 ft | 5 kts | 47° |
| 2026-04-23 00:14 | -34.55863 | -58.41278 | 30 ft | 5 kts | 12° |
| 2026-04-23 00:14 | -34.55828 | -58.41266 | 26 ft | 5 kts | 27° |
| 2026-04-23 00:15 | -34.55804 | -58.41246 | 26 ft | 0 kts | 38° |